Montalvania, Brazil
Current Conditions -  °F | °C
As of 2:00 PM on Saturday 25 Oct 2014 (Local Time) from SBMK Reporting Station
Scattered Clouds Scattered Clouds  
Wind Chill: 93°   Ceiling: Unl
Heat Index: 93°   Visibility: 6mi
Dew Point: 50°   Wind: 6mph
Humidity: 23%   Direction: NA
Pressure: 29.94"   Gusts: NA
Location:  14.43°S, 44.38°W
Report Text: SBMK 251600Z VRB05KT 9999 SCT045 34/10 Q1014
Loading
Personal Weather Stations






























Interactive Weather Map
Tropical Storm Tracking
New forecast layout! Learn more

10-Day Weather Forecast

Advertisements
Track Severe Weather on mobile